Time;durP1;ratioP1;P1;durP2;ratioP2;P2;SDS_P1;SDS_P2;PMS_P1;PMS_P2;Temp;Humidity;BMP_temperature;BMP_pressure;BME280_temperature;BME280_humidity;BME280_pressure;Samples;Min_cycle;Max_cycle;Signal;HPM_P1;HPM_P2
2022/09/21 00:00:24;;;;;;;2.72;0.40;;;;;;;-142.37;100.00;59669.53;4979056;28;20038;-70
2022/09/21 00:02:51;;;;;;;2.33;0.40;;;;;;;-142.37;100.00;59669.53;4977024;28;20039;-70
2022/09/21 00:05:17;;;;;;;1.00;0.43;;;;;;;-142.37;100.00;59669.53;4958959;28;20082;-71
2022/09/21 00:07:43;;;;;;;6.60;0.80;;;;;;;-142.37;100.00;59669.53;4959251;28;20031;-70
2022/09/21 00:10:09;;;;;;;2.58;0.40;;;;;;;-142.37;100.00;59669.53;4976110;28;20030;-70
2022/09/21 00:12:37;;;;;;;1.25;0.40;;;;;;;-142.37;100.00;59669.53;4958954;28;20031;-71
2022/09/21 00:15:07;;;;;;;5.35;0.68;;;;;;;-142.37;100.00;59669.53;4975955;28;20043;-71
2022/09/21 00:17:33;;;;;;;2.38;0.40;;;;;;;-142.37;100.00;59669.53;4976274;28;20525;-69
2022/09/21 00:20:04;;;;;;;2.63;0.50;;;;;;;-142.37;100.00;59669.53;4958844;28;20034;-70
2022/09/21 00:22:30;;;;;;;1.73;0.50;;;;;;;-142.37;100.00;59669.53;4976230;28;20059;-73
2022/09/21 00:24:55;;;;;;;0.73;0.40;;;;;;;-142.37;100.00;59669.53;4976069;28;20392;-70
2022/09/21 00:27:28;;;;;;;4.07;1.00;;;;;;;-142.37;100.00;59669.53;4975882;28;20470;-70
2022/09/21 00:30:02;;;;;;;3.90;0.90;;;;;;;-142.37;100.00;59669.53;4958253;28;20026;-71
2022/09/21 00:32:30;;;;;;;2.70;0.95;;;;;;;-142.37;100.00;59669.53;4975426;28;20110;-70
2022/09/21 00:35:00;;;;;;;4.53;1.25;;;;;;;-142.37;100.00;59669.53;4958383;28;20431;-75
2022/09/21 00:37:26;;;;;;;2.20;0.60;;;;;;;-142.37;100.00;59669.53;4958634;28;20128;-71
2022/09/21 00:39:52;;;;;;;1.92;1.02;;;;;;;-142.37;100.00;59669.53;4958148;28;20041;-70
2022/09/21 00:42:31;;;;;;;6.40;1.17;;;;;;;-142.37;100.00;59669.53;4976013;28;20031;-71
2022/09/21 00:44:56;;;;;;;2.63;0.90;;;;;;;-142.37;100.00;59669.53;4958132;28;20026;-75
2022/09/21 00:47:38;;;;;;;3.58;1.38;;;;;;;-142.37;100.00;59669.53;4975806;28;20106;-71
2022/09/21 00:50:10;;;;;;;6.45;1.25;;;;;;;-142.37;100.00;59669.53;4975379;28;20019;-71
2022/09/21 00:52:45;;;;;;;1.35;0.70;;;;;;;-142.37;100.00;59669.53;4975904;28;20035;-70
2022/09/21 00:55:21;;;;;;;4.78;1.42;;;;;;;-142.37;100.00;59669.53;4975276;28;20029;-70
2022/09/21 00:57:51;;;;;;;4.50;0.77;;;;;;;-142.37;100.00;59669.53;4975682;28;20057;-70
2022/09/21 01:00:17;;;;;;;2.70;1.05;;;;;;;-142.37;100.00;59669.53;4975168;28;20109;-70
2022/09/21 01:02:44;;;;;;;2.70;0.82;;;;;;;-142.37;100.00;59669.53;4958250;28;20392;-73
2022/09/21 01:05:10;;;;;;;2.65;0.70;;;;;;;-142.37;100.00;59669.53;4975110;28;20417;-70
2022/09/21 01:07:40;;;;;;;2.70;0.80;;;;;;;-142.37;100.00;59669.53;4975466;28;20106;-70
2022/09/21 01:10:18;;;;;;;3.60;0.90;;;;;;;-142.37;100.00;59669.53;4975502;28;20121;-69
2022/09/21 01:13:05;;;;;;;1.98;0.65;;;;;;;-142.37;100.00;59669.53;4975696;28;20138;-70
2022/09/21 01:16:06;;;;;;;3.28;0.60;;;;;;;-142.37;100.00;59669.53;4975007;28;20027;-70
2022/09/21 01:19:28;;;;;;;3.22;0.55;;;;;;;-142.37;100.00;59669.53;4947440;28;20039;-70
2022/09/21 01:22:24;;;;;;;4.03;0.80;;;;;;;-142.37;100.00;59669.53;4964095;28;20042;-70
2022/09/21 01:25:37;;;;;;;3.15;0.93;;;;;;;-142.37;100.00;59669.53;4952514;28;20043;-70
2022/09/21 01:28:08;;;;;;;3.75;0.68;;;;;;;-142.37;100.00;59669.53;4948633;28;20049;-70
2022/09/21 01:30:37;;;;;;;3.40;0.70;;;;;;;-142.37;100.00;59669.53;4975294;28;20034;-71
2022/09/21 01:33:16;;;;;;;3.08;0.98;;;;;;;-142.37;100.00;59669.53;4957480;28;20031;-70
2022/09/21 01:35:51;;;;;;;6.25;0.98;;;;;;;-142.37;100.00;59669.53;4957230;28;20054;-70
2022/09/21 01:38:30;;;;;;;2.45;0.85;;;;;;;-142.37;100.00;59669.53;4974900;28;20038;-70
2022/09/21 01:41:03;;;;;;;2.53;0.80;;;;;;;-142.37;100.00;59669.53;4974778;28;20035;-71
2022/09/21 01:43:42;;;;;;;3.72;0.93;;;;;;;-142.37;100.00;59669.53;4957275;28;20030;-69
2022/09/21 01:46:14;;;;;;;1.88;0.75;;;;;;;-142.37;100.00;59669.53;4957341;28;20035;-70
2022/09/21 01:48:45;;;;;;;1.88;0.80;;;;;;;-142.37;100.00;59669.53;4957455;28;20038;-70
2022/09/21 01:51:14;;;;;;;3.17;0.70;;;;;;;-142.37;100.00;59669.53;4957455;28;20034;-70
2022/09/21 01:53:42;;;;;;;3.50;0.75;;;;;;;-142.37;100.00;59669.53;4974797;28;20106;-70
2022/09/21 01:56:39;;;;;;;1.20;0.70;;;;;;;-142.37;100.00;59669.53;4973289;28;20062;-69
2022/09/21 01:59:17;;;;;;;2.15;0.70;;;;;;;-142.37;100.00;59669.53;4953614;28;20041;-69
2022/09/21 02:01:51;;;;;;;3.40;0.65;;;;;;;-142.37;100.00;59669.53;4973401;28;20388;-68
2022/09/21 02:04:17;;;;;;;2.17;0.70;;;;;;;-142.37;100.00;59669.53;4957178;28;20023;-69
2022/09/21 02:06:46;;;;;;;2.08;0.70;;;;;;;-142.37;100.00;59669.53;4974242;28;20034;-69
2022/09/21 02:09:13;;;;;;;1.77;0.80;;;;;;;-142.37;100.00;59669.53;4974231;28;20125;-70
2022/09/21 02:11:41;;;;;;;1.73;0.70;;;;;;;-142.37;100.00;59669.53;4974457;28;20030;-69
2022/09/21 02:14:14;;;;;;;1.17;0.47;;;;;;;-142.37;100.00;59669.53;4974370;28;20030;-70
2022/09/21 02:17:01;;;;;;;1.38;0.50;;;;;;;-142.37;100.00;59669.53;4956632;28;20035;-71
2022/09/21 02:19:44;;;;;;;1.60;0.57;;;;;;;-142.37;100.00;59669.53;4956540;28;20084;-70
2022/09/21 02:22:34;;;;;;;4.85;1.17;;;;;;;-142.37;100.00;59669.53;4973922;28;20041;-70
2022/09/21 02:25:12;;;;;;;4.07;0.57;;;;;;;-142.37;100.00;59669.53;4972539;28;20034;-71
2022/09/21 02:28:11;;;;;;;1.15;0.55;;;;;;;-142.37;100.00;59669.53;4974052;28;20038;-71
2022/09/21 02:30:41;;;;;;;0.95;0.40;;;;;;;-142.37;100.00;59669.53;4957035;28;20030;-70
2022/09/21 02:33:08;;;;;;;2.40;0.73;;;;;;;-142.37;100.00;59669.53;4956674;28;20117;-70
2022/09/21 02:35:43;;;;;;;2.10;0.40;;;;;;;-142.37;100.00;59669.53;4973813;28;20134;-71
2022/09/21 02:38:25;;;;;;;1.83;0.65;;;;;;;-142.37;100.00;59669.53;4973768;28;20384;-71
2022/09/21 02:41:18;;;;;;;1.55;0.55;;;;;;;-142.37;100.00;59669.53;4973876;28;20038;-70
2022/09/21 02:43:44;;;;;;;1.20;0.52;;;;;;;-142.37;100.00;59669.53;4973844;28;20436;-69
2022/09/21 02:46:41;;;;;;;2.72;0.57;;;;;;;-142.37;100.00;59669.53;4973156;28;20045;-69
2022/09/21 02:49:12;;;;;;;5.00;0.57;;;;;;;-142.37;100.00;59669.53;4934250;28;20030;-71
2022/09/21 02:51:50;;;;;;;3.55;0.80;;;;;;;-142.37;100.00;59669.53;4954118;28;20158;-70
2022/09/21 02:54:19;;;;;;;0.90;0.40;;;;;;;-142.37;100.00;59669.53;4959749;28;20027;-70
2022/09/21 02:56:47;;;;;;;2.35;0.40;;;;;;;-142.37;100.00;59669.53;4977725;28;20117;-71
2022/09/21 02:59:15;;;;;;;2.38;0.45;;;;;;;-142.37;100.00;59669.53;4977567;28;20027;-71
2022/09/21 03:01:41;;;;;;;1.40;0.52;;;;;;;-142.37;100.00;59669.53;4977273;28;20041;-69
2022/09/21 03:04:07;;;;;;;2.85;0.55;;;;;;;-142.37;100.00;59669.53;4977378;28;20480;-69
2022/09/21 03:06:32;;;;;;;4.28;0.80;;;;;;;-142.37;100.00;59669.53;4977474;28;20195;-71
2022/09/21 03:08:58;;;;;;;3.25;0.35;;;;;;;-142.37;100.00;59669.53;4977325;28;20027;-71
2022/09/21 03:11:24;;;;;;;1.88;0.50;;;;;;;-142.37;100.00;59669.53;4960000;28;20034;-70
2022/09/21 03:13:50;;;;;;;2.25;0.52;;;;;;;-142.37;100.00;59669.53;4961622;28;20392;-71
2022/09/21 03:16:15;;;;;;;1.20;0.30;;;;;;;-142.37;100.00;59669.53;4979753;28;20035;-71
2022/09/21 03:18:43;;;;;;;2.63;0.38;;;;;;;-142.37;100.00;59669.53;4961785;28;20033;-70
2022/09/21 03:21:12;;;;;;;2.28;0.55;;;;;;;-142.37;100.00;59669.53;4959557;28;20399;-69
2022/09/21 03:23:38;;;;;;;1.48;0.60;;;;;;;-142.37;100.00;59669.53;4975583;28;20436;-69
2022/09/21 03:26:04;;;;;;;3.13;0.40;;;;;;;-142.37;100.00;59669.53;4976912;28;20085;-69
2022/09/21 03:28:30;;;;;;;2.13;0.52;;;;;;;-142.37;100.00;59669.53;4959652;28;20026;-71
2022/09/21 03:30:56;;;;;;;1.75;0.52;;;;;;;-142.37;100.00;59669.53;4977436;28;20034;-69
2022/09/21 03:33:24;;;;;;;7.28;0.70;;;;;;;-142.37;100.00;59669.53;4976784;28;20049;-70
2022/09/21 03:35:50;;;;;;;1.77;0.50;;;;;;;-142.37;100.00;59669.53;4959064;28;20407;-70
2022/09/21 03:38:16;;;;;;;2.88;0.40;;;;;;;-142.37;100.00;59669.53;4959463;28;20109;-70
2022/09/21 03:40:49;;;;;;;2.22;0.30;;;;;;;-142.37;100.00;59669.53;4977035;28;20500;-70
2022/09/21 03:43:15;;;;;;;2.58;0.45;;;;;;;-142.37;100.00;59669.53;4976461;28;20085;-70
2022/09/21 03:45:42;;;;;;;1.90;0.47;;;;;;;-142.37;100.00;59669.53;4959176;28;20055;-70
2022/09/21 03:48:09;;;;;;;4.47;0.50;;;;;;;-142.37;100.00;59669.53;4976796;28;20031;-69
2022/09/21 03:50:36;;;;;;;3.13;0.65;;;;;;;-142.37;100.00;59669.53;4975396;28;20062;-70
2022/09/21 03:53:01;;;;;;;3.95;0.63;;;;;;;-142.37;100.00;59669.53;4958809;28;20495;-71
2022/09/21 03:55:28;;;;;;;4.72;0.45;;;;;;;-142.37;100.00;59669.53;4959056;28;20019;-70
2022/09/21 03:57:54;;;;;;;1.85;0.20;;;;;;;-142.37;100.00;59669.53;4976169;28;20027;-70
2022/09/21 04:00:20;;;;;;;5.63;0.52;;;;;;;-142.37;100.00;59669.53;4975994;28;20035;-71
2022/09/21 04:02:46;;;;;;;3.45;0.50;;;;;;;-142.37;100.00;59669.53;4959210;28;20031;-69
2022/09/21 04:05:14;;;;;;;4.32;0.82;;;;;;;-142.37;100.00;59669.53;4958310;28;20391;-71
2022/09/21 04:07:41;;;;;;;2.50;0.47;;;;;;;-142.37;100.00;59669.53;4958814;28;20035;-72
2022/09/21 04:10:13;;;;;;;4.97;0.65;;;;;;;-142.37;100.00;59669.53;4958649;28;20114;-69
2022/09/21 04:12:43;;;;;;;4.57;0.40;;;;;;;-142.37;100.00;59669.53;4976085;28;20404;-70
2022/09/21 04:15:10;;;;;;;2.10;0.40;;;;;;;-142.37;100.00;59669.53;4976008;28;20073;-71
2022/09/21 04:17:37;;;;;;;5.70;0.55;;;;;;;-142.37;100.00;59669.53;4958540;28;20026;-70
2022/09/21 04:20:04;;;;;;;1.95;0.60;;;;;;;-142.37;100.00;59669.53;4976023;28;20043;-71
2022/09/21 04:22:30;;;;;;;1.98;0.40;;;;;;;-142.37;100.00;59669.53;4958344;28;20031;-71
2022/09/21 04:24:56;;;;;;;4.15;0.40;;;;;;;-142.37;100.00;59669.53;4976096;28;20050;-70
2022/09/21 04:27:23;;;;;;;1.42;0.45;;;;;;;-142.37;100.00;59669.53;4958842;28;20030;-71
2022/09/21 04:29:49;;;;;;;2.55;0.50;;;;;;;-142.37;100.00;59669.53;4958930;28;20143;-70
2022/09/21 04:32:15;;;;;;;3.80;0.68;;;;;;;-142.37;100.00;59669.53;4958490;28;20035;-71
2022/09/21 04:34:40;;;;;;;1.75;0.30;;;;;;;-142.37;100.00;59669.53;4958032;28;20081;-70
2022/09/21 04:37:12;;;;;;;2.83;0.82;;;;;;;-142.37;100.00;59669.53;4957749;28;20019;-70
2022/09/21 04:39:38;;;;;;;1.15;0.50;;;;;;;-142.37;100.00;59669.53;4975406;28;20034;-71
2022/09/21 04:42:04;;;;;;;0.65;0.22;;;;;;;-142.37;100.00;59669.53;4957982;28;20101;-71
2022/09/21 04:44:30;;;;;;;1.92;0.50;;;;;;;-142.37;100.00;59669.53;4975663;28;20510;-70
2022/09/21 04:46:57;;;;;;;4.03;0.52;;;;;;;-142.37;100.00;59669.53;4975168;28;20027;-70
2022/09/21 04:49:22;;;;;;;1.48;0.65;;;;;;;-142.37;100.00;59669.53;4975121;28;20042;-70
2022/09/21 04:51:48;;;;;;;6.78;0.90;;;;;;;-142.37;100.00;59669.53;4974662;28;20035;-71
2022/09/21 04:54:15;;;;;;;9.52;0.98;;;;;;;-142.37;100.00;59669.53;4974714;28;20031;-70
2022/09/21 04:56:41;;;;;;;2.85;2.00;;;;;;;-142.37;100.00;59669.53;4974905;28;20153;-71
2022/09/21 04:59:06;;;;;;;1.80;0.82;;;;;;;-142.37;100.00;59669.53;4974965;28;20031;-69
2022/09/21 05:01:32;;;;;;;4.93;0.50;;;;;;;-142.37;100.00;59669.53;4957849;28;20169;-73
2022/09/21 05:04:00;;;;;;;1.70;0.30;;;;;;;-142.37;100.00;59669.53;4974708;28;20157;-70
2022/09/21 05:06:32;;;;;;;4.68;0.70;;;;;;;-142.37;100.00;59669.53;4956940;28;20046;-70
2022/09/21 05:11:42;;;;;;;6.23;1.40;;;;;;;-142.37;100.00;59669.53;4974667;28;20041;-71
2022/09/21 05:14:08;;;;;;;9.15;1.05;;;;;;;-142.37;100.00;59669.53;4974382;28;20067;-70
2022/09/21 05:16:35;;;;;;;5.70;1.05;;;;;;;-142.37;100.00;59669.53;4973693;28;20027;-71
2022/09/21 05:19:00;;;;;;;8.38;1.00;;;;;;;-142.37;100.00;59669.53;4974066;28;20031;-71
2022/09/21 05:21:26;;;;;;;5.78;0.93;;;;;;;-142.37;100.00;59669.53;4974563;28;20034;-71
2022/09/21 05:23:52;;;;;;;8.60;1.05;;;;;;;-142.37;100.00;59669.53;4957199;28;20113;-72
2022/09/21 05:26:18;;;;;;;6.78;0.80;;;;;;;-142.37;100.00;59669.53;4974311;28;20495;-71
2022/09/21 05:28:44;;;;;;;8.68;0.65;;;;;;;-142.37;100.00;59669.53;4956804;28;20034;-71
2022/09/21 05:31:46;;;;;;;1.50;0.50;;;;;;;-142.37;100.00;59669.53;4973180;28;20495;-72
2022/09/21 05:34:33;;;;;;;3.90;1.00;;;;;;;-142.37;100.00;59669.53;4973594;28;20026;-72
2022/09/21 05:37:36;;;;;;;2.25;0.73;;;;;;;-142.37;100.00;59669.53;4955591;28;20062;-75
2022/09/21 05:40:04;;;;;;;8.38;0.63;;;;;;;-142.37;100.00;59669.53;4973553;28;20038;-71
2022/09/21 05:42:30;;;;;;;6.95;1.10;;;;;;;-142.37;100.00;59669.53;4955724;28;20037;-72
2022/09/21 05:44:56;;;;;;;4.45;0.93;;;;;;;-142.37;100.00;59669.53;4973032;28;20038;-77
2022/09/21 05:47:24;;;;;;;4.82;0.40;;;;;;;-142.37;100.00;59669.53;4956195;28;20027;-72
2022/09/21 05:49:59;;;;;;;9.50;0.70;;;;;;;-142.37;100.00;59669.53;4973353;28;20348;-72
2022/09/21 05:52:51;;;;;;;3.58;0.60;;;;;;;-142.37;100.00;59669.53;4973246;28;20093;-72
2022/09/21 05:55:16;;;;;;;5.55;0.57;;;;;;;-142.37;100.00;59669.53;4955680;28;20030;-72
2022/09/21 05:58:05;;;;;;;1.85;0.43;;;;;;;-142.37;100.00;59669.53;4973212;28;20035;-72
2022/09/21 06:00:51;;;;;;;7.28;0.70;;;;;;;-142.37;100.00;59669.53;4954791;28;20034;-71
2022/09/21 06:03:30;;;;;;;6.35;0.80;;;;;;;-142.37;100.00;59669.53;4972395;28;20117;-72
2022/09/21 06:05:57;;;;;;;3.17;0.50;;;;;;;-142.37;100.00;59669.53;4955436;28;20045;-71
2022/09/21 06:08:23;;;;;;;4.88;0.50;;;;;;;-142.37;100.00;59669.53;4971963;28;20035;-72
2022/09/21 06:10:49;;;;;;;5.45;1.08;;;;;;;-142.37;100.00;59669.53;4955329;28;20030;-72
2022/09/21 06:13:16;;;;;;;7.00;0.93;;;;;;;-142.37;100.00;59669.53;4955110;28;20365;-72
2022/09/21 06:15:43;;;;;;;11.38;0.82;;;;;;;-142.37;100.00;59669.53;4972473;28;20085;-71
2022/09/21 06:18:09;;;;;;;4.93;1.08;;;;;;;-142.37;100.00;59669.53;4955277;28;20487;-72
2022/09/21 06:20:35;;;;;;;6.03;2.17;;;;;;;-142.37;100.00;59669.53;4972753;28;20026;-70
2022/09/21 06:23:02;;;;;;;5.85;1.10;;;;;;;-142.37;100.00;59669.53;4972089;28;20065;-72
2022/09/21 06:25:28;;;;;;;5.20;0.82;;;;;;;-142.37;100.00;59669.53;4972107;28;20031;-72
2022/09/21 06:27:53;;;;;;;3.45;0.90;;;;;;;-142.37;100.00;59669.53;4954467;28;20039;-72
2022/09/21 06:30:19;;;;;;;8.85;1.30;;;;;;;-142.37;100.00;59669.53;4955692;28;20037;-71
2022/09/21 06:32:45;;;;;;;7.18;0.77;;;;;;;-142.37;100.00;59669.53;4954550;28;20046;-72
2022/09/21 06:35:10;;;;;;;6.90;0.90;;;;;;;-142.37;100.00;59669.53;4971735;28;20047;-71
2022/09/21 06:37:38;;;;;;;5.15;1.38;;;;;;;-142.37;100.00;59669.53;4955117;28;20027;-73
2022/09/21 06:40:05;;;;;;;2.03;0.75;;;;;;;-142.37;100.00;59669.53;4971770;28;20085;-73
2022/09/21 06:42:31;;;;;;;2.25;0.70;;;;;;;-142.37;100.00;59669.53;4970780;28;20115;-74
2022/09/21 06:44:56;;;;;;;8.10;1.23;;;;;;;-142.37;100.00;59669.53;4972544;28;20103;-73
2022/09/21 06:47:22;;;;;;;6.43;1.17;;;;;;;-142.37;100.00;59669.53;4972140;28;20444;-70
2022/09/21 06:49:48;;;;;;;2.22;0.70;;;;;;;-142.37;100.00;59669.53;4954730;28;20647;-73
2022/09/21 06:52:14;;;;;;;3.25;0.70;;;;;;;-142.37;100.00;59669.53;4972329;28;20055;-73
2022/09/21 06:54:41;;;;;;;4.53;1.48;;;;;;;-142.37;100.00;59669.53;4954824;28;20477;-72
2022/09/21 06:57:07;;;;;;;5.80;1.10;;;;;;;-142.37;100.00;59669.53;4971505;28;20041;-73
2022/09/21 06:59:32;;;;;;;6.45;0.98;;;;;;;-142.37;100.00;59669.53;4954783;28;20030;-73
2022/09/21 07:01:58;;;;;;;3.63;1.02;;;;;;;-142.37;100.00;59669.53;4972494;28;20051;-72
2022/09/21 07:04:24;;;;;;;9.15;1.10;;;;;;;-142.37;100.00;59669.53;4955046;28;20468;-73
2022/09/21 07:06:50;;;;;;;7.95;1.13;;;;;;;-142.37;100.00;59669.53;4972552;28;20074;-70
2022/09/21 07:09:15;;;;;;;7.22;1.27;;;;;;;-142.37;100.00;59669.53;4954310;28;20460;-73
2022/09/21 07:11:41;;;;;;;6.63;1.02;;;;;;;-142.37;100.00;59669.53;4954779;28;20038;-72
2022/09/21 07:14:07;;;;;;;10.45;2.58;;;;;;;-142.37;100.00;59669.53;4955394;28;20035;-72
2022/09/21 07:16:32;;;;;;;6.82;1.38;;;;;;;-142.37;100.00;59669.53;4972601;28;20538;-70
2022/09/21 07:18:58;;;;;;;2.47;1.02;;;;;;;-142.37;100.00;59669.53;4954678;28;20031;-71
2022/09/21 07:21:24;;;;;;;5.72;1.42;;;;;;;-142.37;100.00;59669.53;4972179;28;20031;-72
2022/09/21 07:23:49;;;;;;;1.45;0.70;;;;;;;-142.37;100.00;59669.53;4972110;28;20082;-72
2022/09/21 07:26:16;;;;;;;12.55;1.88;;;;;;;-142.37;100.00;59669.53;4972942;28;20039;-71
2022/09/21 07:28:42;;;;;;;4.07;1.00;;;;;;;-142.37;100.00;59669.53;4972597;28;20105;-72
2022/09/21 07:31:12;;;;;;;2.05;0.82;;;;;;;-142.37;100.00;59669.53;4972270;28;20110;-72
2022/09/21 07:33:39;;;;;;;4.65;0.70;;;;;;;-142.37;100.00;59669.53;4954826;28;20134;-72
2022/09/21 07:36:09;;;;;;;2.30;0.68;;;;;;;-142.37;100.00;59669.53;4971648;28;20057;-71
2022/09/21 07:38:39;;;;;;;1.98;0.60;;;;;;;-142.37;100.00;59669.53;4954577;28;20031;-72
2022/09/21 07:41:06;;;;;;;4.63;0.80;;;;;;;-142.37;100.00;59669.53;4957066;28;20042;-72
2022/09/21 07:43:32;;;;;;;3.55;1.15;;;;;;;-142.37;100.00;59669.53;4975731;28;20502;-70
2022/09/21 07:45:58;;;;;;;2.30;0.90;;;;;;;-142.37;100.00;59669.53;4975579;28;20113;-74
2022/09/21 07:48:24;;;;;;;1.77;0.40;;;;;;;-142.37;100.00;59669.53;4975790;28;20037;-72
2022/09/21 07:50:50;;;;;;;6.30;1.02;;;;;;;-142.37;100.00;59669.53;4975372;28;20026;-73
2022/09/21 07:53:16;;;;;;;1.27;0.70;;;;;;;-142.37;100.00;59669.53;4957728;28;20034;-69
2022/09/21 07:55:42;;;;;;;1.77;0.30;;;;;;;-142.37;100.00;59669.53;4975917;28;20031;-70
2022/09/21 08:00:53;;;;;;;1.95;0.80;;;;;;;-142.37;100.00;59669.53;4976474;28;20073;-71
2022/09/21 08:03:19;;;;;;;0.52;0.45;;;;;;;-142.37;100.00;59669.53;4958222;28;20389;-72
2022/09/21 08:05:44;;;;;;;0.95;0.60;;;;;;;-142.37;100.00;59669.53;4957548;28;20038;-71
2022/09/21 08:08:11;;;;;;;2.00;0.50;;;;;;;-142.37;100.00;59669.53;4958264;28;20066;-72
2022/09/21 08:10:38;;;;;;;2.33;0.80;;;;;;;-142.37;100.00;59669.53;4975329;28;20045;-71
2022/09/21 08:13:03;;;;;;;0.80;0.32;;;;;;;-142.37;100.00;59669.53;4974120;28;20038;-72
2022/09/21 08:15:29;;;;;;;1.20;0.60;;;;;;;-142.37;100.00;59669.53;4958278;28;20458;-72
2022/09/21 08:17:57;;;;;;;2.15;0.50;;;;;;;-142.37;100.00;59669.53;4975557;28;20548;-72
2022/09/21 08:20:23;;;;;;;3.38;0.70;;;;;;;-142.37;100.00;59669.53;4974599;28;20046;-71
2022/09/21 08:22:49;;;;;;;1.85;0.70;;;;;;;-142.37;100.00;59669.53;4958061;28;20132;-69
2022/09/21 08:25:15;;;;;;;3.47;0.80;;;;;;;-142.37;100.00;59669.53;4957943;28;20472;-69
2022/09/21 08:27:41;;;;;;;3.97;0.90;;;;;;;-142.37;100.00;59669.53;4975244;28;20058;-70
2022/09/21 08:30:07;;;;;;;2.22;0.88;;;;;;;-142.37;100.00;59669.53;4975144;28;20082;-69
2022/09/21 08:32:33;;;;;;;2.22;0.60;;;;;;;-142.37;100.00;59669.53;4974578;28;20150;-66
2022/09/21 08:34:59;;;;;;;1.63;0.73;;;;;;;-142.37;100.00;59669.53;4974526;28;20486;-65
2022/09/21 08:37:25;;;;;;;1.70;0.90;;;;;;;-142.37;100.00;59669.53;4974768;28;20098;-62
2022/09/21 08:39:50;;;;;;;1.67;0.57;;;;;;;-142.37;100.00;59669.53;4974563;28;20061;-64
2022/09/21 08:42:34;;;;;;;2.53;0.70;;;;;;;-142.37;100.00;59669.53;4973949;28;20114;-64
2022/09/21 08:45:05;;;;;;;3.97;0.80;;;;;;;-142.37;100.00;59669.53;4974115;28;20503;-63
2022/09/21 08:47:44;;;;;;;3.20;0.60;;;;;;;-142.37;100.00;59669.53;4974550;28;20035;-64
2022/09/21 08:50:41;;;;;;;1.90;0.60;;;;;;;-142.37;100.00;59669.53;4957315;28;20373;-67
2022/09/21 08:53:16;;;;;;;1.50;0.63;;;;;;;-142.37;100.00;59669.53;4951209;28;20360;-65
2022/09/21 08:55:41;;;;;;;4.93;1.17;;;;;;;-142.37;100.00;59669.53;4956845;28;20377;-65
2022/09/21 08:58:24;;;;;;;2.50;1.00;;;;;;;-142.37;100.00;59669.53;4974722;28;20070;-67
2022/09/21 09:01:04;;;;;;;4.13;0.73;;;;;;;-142.37;100.00;59669.53;4974065;28;20170;-64
2022/09/21 09:04:18;;;;;;;3.33;0.60;;;;;;;-142.37;100.00;59669.53;4956441;28;20039;-65
2022/09/21 09:07:26;;;;;;;3.67;0.77;;;;;;;-142.37;100.00;59669.53;4968573;28;20050;-65
2022/09/21 09:09:57;;;;;;;3.28;0.80;;;;;;;-142.37;100.00;59669.53;4953653;28;20093;-65
2022/09/21 09:12:54;;;;;;;4.40;1.00;;;;;;;-142.37;100.00;59669.53;4973309;28;20035;-64
2022/09/21 09:15:31;;;;;;;2.28;0.60;;;;;;;-142.37;100.00;59669.53;4973903;28;20034;-63
2022/09/21 09:18:23;;;;;;;2.58;0.65;;;;;;;-142.37;100.00;59669.53;4974226;28;20045;-64
2022/09/21 09:20:58;;;;;;;0.65;0.50;;;;;;;-142.37;100.00;59669.53;4973251;28;20039;-65
2022/09/21 09:23:36;;;;;;;6.63;0.80;;;;;;;-142.37;100.00;59669.53;4974031;28;20043;-65
2022/09/21 09:26:08;;;;;;;0.57;0.47;;;;;;;-142.37;100.00;59669.53;4973507;28;20042;-64
2022/09/21 09:28:37;;;;;;;1.60;0.55;;;;;;;-142.37;100.00;59669.53;4973573;28;20034;-67
2022/09/21 09:31:05;;;;;;;1.33;0.80;;;;;;;-142.37;100.00;59669.53;4971332;28;20515;-64
2022/09/21 09:33:52;;;;;;;2.95;0.93;;;;;;;-142.37;100.00;59669.53;4973218;28;20031;-63
2022/09/21 09:36:18;;;;;;;2.33;1.00;;;;;;;-142.37;100.00;59669.53;4973140;28;20043;-67
2022/09/21 09:38:52;;;;;;;6.85;3.65;;;;;;;-142.37;100.00;59669.53;4955377;28;20031;-66
2022/09/21 09:41:45;;;;;;;6.65;2.03;;;;;;;-142.37;100.00;59669.53;4972158;28;20038;-65
2022/09/21 09:44:38;;;;;;;2.50;0.70;;;;;;;-142.37;100.00;59669.53;4972845;28;20034;-63
2022/09/21 09:47:17;;;;;;;3.03;0.95;;;;;;;-142.37;100.00;59669.53;4971308;28;20987;-65
2022/09/21 09:50:12;;;;;;;2.85;0.60;;;;;;;-142.37;100.00;59669.53;4972656;28;20113;-63
2022/09/21 09:52:38;;;;;;;;;;;;;;;-142.37;100.00;59669.53;4972002;28;20030;-64
2022/09/21 09:55:37;;;;;;;0.55;0.40;;;;;;;-142.37;100.00;59669.53;4955651;28;19988;-63
2022/09/21 09:58:03;;;;;;;3.45;1.40;;;;;;;-142.37;100.00;59669.53;4943844;28;20039;-66
2022/09/21 10:00:29;;;;;;;3.20;0.70;;;;;;;-142.37;100.00;59669.53;4955228;28;20035;-65
2022/09/21 10:03:00;;;;;;;2.00;0.93;;;;;;;-142.37;100.00;59669.53;4972406;28;20038;-65
2022/09/21 10:05:34;;;;;;;1.25;0.70;;;;;;;-142.37;100.00;59669.53;4954656;28;20035;-65
2022/09/21 10:08:00;;;;;;;2.70;1.00;;;;;;;-142.37;100.00;59669.53;4955129;28;20531;-66
2022/09/21 10:10:31;;;;;;;3.45;0.50;;;;;;;-142.37;100.00;59669.53;4972329;28;20089;-65
2022/09/21 10:13:18;;;;;;;0.60;0.50;;;;;;;-142.37;100.00;59669.53;4970574;28;20439;-65
2022/09/21 10:15:49;;;;;;;1.02;0.82;;;;;;;-142.37;100.00;59669.53;4954591;28;20039;-64
2022/09/21 10:18:22;;;;;;;0.57;0.30;;;;;;;-142.37;100.00;59669.53;4971835;28;20114;-64
2022/09/21 10:21:00;;;;;;;1.08;0.45;;;;;;;-142.37;100.00;59669.53;4970381;28;20046;-63
2022/09/21 10:23:27;;;;;;;1.15;0.60;;;;;;;-142.37;100.00;59669.53;4972864;28;20030;-63
2022/09/21 10:26:13;;;;;;;1.55;0.40;;;;;;;-142.37;100.00;59669.53;4954918;28;20054;-64
2022/09/21 10:29:00;;;;;;;2.17;0.73;;;;;;;-142.37;100.00;59669.53;4971874;28;20046;-64
2022/09/21 10:31:28;;;;;;;4.38;0.40;;;;;;;-142.37;100.00;59669.53;4971896;28;20034;-64
2022/09/21 10:34:03;;;;;;;1.95;0.80;;;;;;;-142.37;100.00;59669.53;4972105;28;20039;-64
2022/09/21 10:36:33;;;;;;;0.73;0.40;;;;;;;-142.37;100.00;59669.53;4970198;28;20054;-65
2022/09/21 10:39:24;;;;;;;1.13;0.50;;;;;;;-142.37;100.00;59669.53;4970923;28;20375;-65
2022/09/21 10:42:12;;;;;;;0.55;0.32;;;;;;;-142.37;100.00;59669.53;4954977;28;20409;-65
2022/09/21 10:44:41;;;;;;;3.45;0.52;;;;;;;-142.37;100.00;59669.53;4954730;28;20066;-65
2022/09/21 10:47:21;;;;;;;4.18;1.33;;;;;;;-142.37;100.00;59669.53;4971674;28;20035;-66
2022/09/21 10:49:56;;;;;;;2.88;0.60;;;;;;;-142.37;100.00;59669.53;4970733;28;20038;-65
2022/09/21 10:52:30;;;;;;;1.83;0.82;;;;;;;-142.37;100.00;59669.53;4971299;28;20035;-63
2022/09/21 10:54:56;;;;;;;5.88;2.80;;;;;;;-142.37;100.00;59669.53;4972046;28;20026;-65
2022/09/21 10:57:24;;;;;;;1.27;0.82;;;;;;;-142.37;100.00;59669.53;4954921;28;20046;-65
2022/09/21 10:59:50;;;;;;;1.35;0.60;;;;;;;-142.37;100.00;59669.53;4954568;28;20053;-64
2022/09/21 11:02:30;;;;;;;2.42;1.55;;;;;;;-142.37;100.00;59669.53;4954482;28;20464;-65
2022/09/21 11:05:06;;;;;;;0.43;0.32;;;;;;;-142.37;100.00;59669.53;4970601;28;20027;-64
2022/09/21 11:07:38;;;;;;;0.65;0.20;;;;;;;-142.37;100.00;59669.53;4971900;28;20027;-65
2022/09/21 11:10:09;;;;;;;3.92;0.43;;;;;;;-142.37;100.00;59669.53;4972535;28;20038;-66
2022/09/21 11:13:00;;;;;;;0.90;0.30;;;;;;;-142.37;100.00;59669.53;4970239;28;20562;-64
2022/09/21 11:15:48;;;;;;;0.95;0.57;;;;;;;-142.37;100.00;59669.53;4956547;28;20037;-64
2022/09/21 11:18:19;;;;;;;0.80;0.45;;;;;;;-142.37;100.00;59669.53;4958042;28;20562;-65
2022/09/21 11:20:59;;;;;;;0.73;0.50;;;;;;;-142.37;100.00;59669.53;4975863;28;20039;-65
2022/09/21 11:23:46;;;;;;;1.02;0.90;;;;;;;-142.37;100.00;59669.53;4975259;28;20033;-64
2022/09/21 11:26:25;;;;;;;0.80;0.32;;;;;;;-142.37;100.00;59669.53;4958399;28;20126;-64
2022/09/21 11:29:05;;;;;;;2.47;1.70;;;;;;;-142.37;100.00;59669.53;4958317;28;20038;-64
2022/09/21 11:31:31;;;;;;;4.22;3.15;;;;;;;-142.37;100.00;59669.53;4958182;28;20023;-64
2022/09/21 11:34:24;;;;;;;0.68;0.20;;;;;;;-142.37;100.00;59669.53;4974162;28;20069;-64
2022/09/21 11:37:26;;;;;;;0.65;0.28;;;;;;;-142.37;100.00;59669.53;4975129;28;20456;-64